createdAt,value
2017-10-20T00:00:48.129Z,61.10
2017-10-20T00:03:14.161Z,60.70
2017-10-20T00:05:40.205Z,59.63
2017-10-20T00:08:06.300Z,61.22
2017-10-20T00:10:32.382Z,60.55
2017-10-20T00:12:58.417Z,58.95
2017-10-20T00:15:24.706Z,57.78
2017-10-20T00:17:50.737Z,61.00
2017-10-20T00:20:17.497Z,58.58
2017-10-20T00:22:43.536Z,60.15
2017-10-20T00:25:09.605Z,57.50
2017-10-20T00:27:35.638Z,55.65
2017-10-20T00:30:02.423Z,57.08
2017-10-20T00:32:28.798Z,59.15
2017-10-20T00:34:54.850Z,58.03
2017-10-20T00:37:20.878Z,59.70
2017-10-20T00:39:47.177Z,60.08
2017-10-20T00:42:13.961Z,59.20
2017-10-20T00:44:47.021Z,57.88
2017-10-20T00:47:13.092Z,59.30
2017-10-20T00:49:39.132Z,58.33
2017-10-20T00:52:05.195Z,61.05
2017-10-20T00:54:31.252Z,59.08
2017-10-20T00:56:57.319Z,58.47
2017-10-20T00:59:24.468Z,58.50
2017-10-20T01:01:51.248Z,57.38
2017-10-20T01:04:17.298Z,58.15
2017-10-20T01:06:43.359Z,58.33
2017-10-20T01:09:10.140Z,55.40
2017-10-20T01:11:36.205Z,59.30
2017-10-20T01:14:02.301Z,56.80
2017-10-20T01:16:28.358Z,59.67
2017-10-20T01:18:55.183Z,58.80
2017-10-20T01:21:21.249Z,62.42
2017-10-20T01:23:47.302Z,59.97
2017-10-20T01:26:13.547Z,60.28
2017-10-20T01:28:40.345Z,59.10
2017-10-20T01:31:13.399Z,63.25
2017-10-20T01:33:40.373Z,62.45
2017-10-20T01:36:06.430Z,62.15
2017-10-20T01:38:33.540Z,60.95
2017-10-20T01:40:59.777Z,61.10
2017-10-20T01:43:25.969Z,62.10
2017-10-20T01:45:52.770Z,58.25
2017-10-20T01:48:19.125Z,59.70
2017-10-20T01:50:45.953Z,58.97
2017-10-20T01:53:12.123Z,59.22
2017-10-20T01:55:38.221Z,61.42
2017-10-20T01:58:05.038Z,61.85
2017-10-20T02:00:31.159Z,59.15
2017-10-20T02:02:57.254Z,59.70
2017-10-20T02:05:23.337Z,58.15
2017-10-20T02:07:50.116Z,59.22
2017-10-20T02:10:16.176Z,59.67
2017-10-20T02:12:42.248Z,56.67
2017-10-20T02:15:08.294Z,57.60
2017-10-20T02:17:34.369Z,57.05
2017-10-20T02:20:01.154Z,57.08
2017-10-20T02:22:27.194Z,57.58
2017-10-20T02:24:53.285Z,57.25
2017-10-20T02:27:19.350Z,59.92
2017-10-20T02:29:45.394Z,57.53
2017-10-20T02:32:12.629Z,58.08
2017-10-20T02:34:38.690Z,56.72
2017-10-20T02:37:04.730Z,57.78
2017-10-20T02:39:31.005Z,56.95
2017-10-20T02:41:57.066Z,56.50
2017-10-20T02:44:23.123Z,56.83
2017-10-20T02:46:49.203Z,57.10
2017-10-20T02:49:15.259Z,54.85
2017-10-20T02:51:41.305Z,54.25
2017-10-20T02:54:07.373Z,53.10
2017-10-20T02:56:33.428Z,55.50
2017-10-20T02:58:59.494Z,58.53
2017-10-20T03:01:26.530Z,57.55
2017-10-20T03:03:52.586Z,57.60
2017-10-20T03:06:18.626Z,56.30
2017-10-20T03:08:44.669Z,55.58
2017-10-20T03:11:10.694Z,56.07
2017-10-20T03:13:36.716Z,54.08
2017-10-20T03:16:02.777Z,54.83
2017-10-20T03:18:29.543Z,55.28
2017-10-20T03:20:55.592Z,55.73
2017-10-20T03:23:21.630Z,54.83
2017-10-20T03:25:47.673Z,55.47
2017-10-20T03:28:14.452Z,56.08
2017-10-20T03:30:40.490Z,52.13
2017-10-20T03:33:06.528Z,54.45
2017-10-20T03:35:33.493Z,52.70
2017-10-20T03:37:59.530Z,53.60
2017-10-20T03:40:26.302Z,53.83
2017-10-20T03:42:52.349Z,55.95
2017-10-20T03:45:18.386Z,51.25
2017-10-20T03:47:44.421Z,52.10
2017-10-20T03:50:10.451Z,52.15
2017-10-20T03:52:37.230Z,54.20
2017-10-20T03:55:04.454Z,53.17
2017-10-20T03:57:30.487Z,53.13
2017-10-20T03:59:56.521Z,54.45
2017-10-20T04:02:22.561Z,51.27
2017-10-20T04:04:48.621Z,53.13
2017-10-20T04:07:14.670Z,54.00
2017-10-20T04:09:40.735Z,50.90
2017-10-20T04:12:06.815Z,51.80
2017-10-20T04:14:32.849Z,51.67
2017-10-20T04:16:58.938Z,51.17
2017-10-20T04:19:25.757Z,48.20
2017-10-20T04:21:51.805Z,52.85
2017-10-20T04:24:18.585Z,50.93
2017-10-20T04:26:44.637Z,49.75
2017-10-20T04:29:10.694Z,54.80
2017-10-20T04:31:37.493Z,50.17
2017-10-20T04:34:03.563Z,51.92
2017-10-20T04:36:30.338Z,50.12
2017-10-20T04:38:56.550Z,48.60
2017-10-20T04:41:22.582Z,49.42
2017-10-20T04:43:48.651Z,49.30
2017-10-20T04:46:15.472Z,50.20
2017-10-20T04:48:41.517Z,48.67
2017-10-20T04:51:07.557Z,48.65
2017-10-20T04:53:34.333Z,50.30
2017-10-20T04:56:00.385Z,48.33
2017-10-20T04:58:26.431Z,48.63
2017-10-20T05:00:54.085Z,50.55
2017-10-20T05:03:20.926Z,47.88
2017-10-20T05:05:47.694Z,47.70
2017-10-20T05:08:13.902Z,47.88
2017-10-20T05:10:40.669Z,47.27
2017-10-20T05:13:06.714Z,51.72
2017-10-20T05:15:32.776Z,49.33
2017-10-20T05:17:59.549Z,46.55
2017-10-20T05:20:25.598Z,46.22
2017-10-20T05:22:51.870Z,48.38
2017-10-20T05:25:18.658Z,46.27
2017-10-20T05:27:44.702Z,45.97
2017-10-20T05:30:10.751Z,46.40
2017-10-20T05:32:37.517Z,46.88
2017-10-20T05:35:03.562Z,47.53
2017-10-20T05:37:29.637Z,44.78
2017-10-20T05:39:56.437Z,46.27
2017-10-20T05:42:22.605Z,47.05
2017-10-20T05:44:49.414Z,46.17
2017-10-20T05:47:15.489Z,46.67
2017-10-20T05:49:41.542Z,46.22
2017-10-20T05:52:07.590Z,46.08
2017-10-20T05:54:33.609Z,46.50
2017-10-20T05:56:59.666Z,45.50
2017-10-20T05:59:25.734Z,44.10
2017-10-20T06:01:51.766Z,44.83
2017-10-20T06:04:17.834Z,41.88
2017-10-20T06:06:44.606Z,44.17
2017-10-20T06:09:10.628Z,44.07
2017-10-20T06:11:36.702Z,43.60
2017-10-20T06:14:03.489Z,42.88
2017-10-20T06:16:29.522Z,40.70
2017-10-20T06:18:55.781Z,41.60
2017-10-20T06:21:21.813Z,41.65
2017-10-20T06:23:48.591Z,42.38
2017-10-20T06:26:15.445Z,43.65
2017-10-20T06:28:41.509Z,40.87
2017-10-20T06:31:07.545Z,40.67
2017-10-20T06:33:34.341Z,40.23
2017-10-20T06:36:00.391Z,41.30
2017-10-20T06:38:26.423Z,38.78
2017-10-20T06:40:53.253Z,38.65
2017-10-20T06:43:19.325Z,39.55
2017-10-20T06:45:45.409Z,39.40
2017-10-20T06:48:12.238Z,38.75
2017-10-20T06:50:39.039Z,39.35
2017-10-20T06:53:05.096Z,36.55
2017-10-20T06:55:31.198Z,38.87
2017-10-20T06:57:57.268Z,37.17
2017-10-20T07:00:24.052Z,36.08
2017-10-20T07:02:50.157Z,34.60
2017-10-20T07:05:16.266Z,34.30
2017-10-20T07:07:42.692Z,35.05
2017-10-20T07:10:08.937Z,33.95
2017-10-20T07:12:35.007Z,33.85
2017-10-20T07:15:01.070Z,32.63
2017-10-20T07:17:27.149Z,33.65
2017-10-20T07:20:04.059Z,33.33
2017-10-20T07:22:31.204Z,31.73
2017-10-20T07:24:58.183Z,30.85
2017-10-20T07:27:24.234Z,32.08
2017-10-20T07:29:50.354Z,31.65
2017-10-20T07:32:17.094Z,30.75
2017-10-20T07:34:43.161Z,30.33
2017-10-20T07:37:09.207Z,31.00
2017-10-20T07:39:35.638Z,30.05
2017-10-20T07:42:01.686Z,30.90
2017-10-20T07:44:27.737Z,29.90
2017-10-20T07:46:53.837Z,29.55
2017-10-20T07:49:19.917Z,30.08
2017-10-20T07:51:45.990Z,29.37
2017-10-20T07:54:12.344Z,28.63
2017-10-20T07:56:39.137Z,28.15
2017-10-20T07:59:05.166Z,27.98
2017-10-20T08:01:31.262Z,27.50
2017-10-20T08:03:57.295Z,26.50
2017-10-20T08:06:23.328Z,26.00
2017-10-20T08:08:49.423Z,25.45
2017-10-20T08:11:15.467Z,25.55
2017-10-20T08:13:41.834Z,26.55
2017-10-20T08:16:07.862Z,26.75
2017-10-20T08:18:34.629Z,25.00
2017-10-20T08:21:00.930Z,25.17
2017-10-20T08:23:27.706Z,26.40
2017-10-20T08:25:53.761Z,24.52
2017-10-20T08:28:19.838Z,23.80
2017-10-20T08:30:45.897Z,23.95
2017-10-20T08:33:11.946Z,23.90
2017-10-20T08:35:38.000Z,23.70
2017-10-20T08:38:04.064Z,24.90
2017-10-20T08:40:30.625Z,23.98
2017-10-20T08:45:07.414Z,24.33
2017-10-20T08:47:34.205Z,24.67
2017-10-20T08:50:00.271Z,25.23
2017-10-20T08:52:26.357Z,23.77
2017-10-20T08:54:52.442Z,23.80
2017-10-20T08:57:18.494Z,24.73
2017-10-20T08:59:44.550Z,24.70
2017-10-20T09:02:10.642Z,24.52
2017-10-20T09:04:36.704Z,25.10
2017-10-20T09:07:02.745Z,23.45
2017-10-20T09:09:29.681Z,24.12
2017-10-20T09:11:56.469Z,22.13
2017-10-20T09:14:22.745Z,23.52
2017-10-20T09:16:49.525Z,24.15
2017-10-20T09:19:15.582Z,24.25
2017-10-20T09:21:41.625Z,24.58
2017-10-20T09:24:08.422Z,24.12
2017-10-20T09:26:34.470Z,23.58
2017-10-20T09:29:01.434Z,24.58
2017-10-20T09:31:28.218Z,24.00
2017-10-20T09:33:54.266Z,24.40
2017-10-20T09:36:20.474Z,24.70
2017-10-20T09:38:46.521Z,23.70
2017-10-20T09:41:12.562Z,24.00
2017-10-20T09:43:39.381Z,24.85
2017-10-20T09:46:05.462Z,24.65
2017-10-20T09:48:31.527Z,23.92
2017-10-20T09:50:57.603Z,24.98
2017-10-20T09:53:23.630Z,24.10
2017-10-20T09:55:49.675Z,24.10
2017-10-20T09:58:15.731Z,25.70
2017-10-20T10:00:42.528Z,23.80
2017-10-20T10:03:08.598Z,22.67
2017-10-20T10:05:35.427Z,25.12
2017-10-20T10:08:02.249Z,23.20
2017-10-20T10:10:28.328Z,24.42
2017-10-20T10:12:54.425Z,24.80
2017-10-20T10:15:21.210Z,23.48
2017-10-20T10:17:47.258Z,23.98
2017-10-20T10:20:13.322Z,24.35
2017-10-20T10:22:39.378Z,24.20
2017-10-20T10:25:05.449Z,23.30
2017-10-20T10:27:32.258Z,24.10
2017-10-20T10:29:58.318Z,24.27
2017-10-20T10:32:25.123Z,24.87
2017-10-20T10:34:51.178Z,25.62
2017-10-20T10:37:17.224Z,24.40
2017-10-20T10:39:43.301Z,22.70
2017-10-20T10:42:09.338Z,23.45
2017-10-20T10:44:36.134Z,23.15
2017-10-20T10:47:02.214Z,24.08
2017-10-20T10:49:29.015Z,22.95
2017-10-20T10:51:55.069Z,24.75
2017-10-20T10:54:22.003Z,25.00
2017-10-20T10:56:48.050Z,25.20
2017-10-20T10:59:14.111Z,26.10
2017-10-20T11:01:40.190Z,26.35
2017-10-20T11:04:06.247Z,28.15
2017-10-20T11:09:47.692Z,26.00
2017-10-20T11:15:14.211Z,26.83
2017-10-20T11:17:40.265Z,24.52
2017-10-20T11:20:06.298Z,24.77
2017-10-20T11:22:33.092Z,24.98
2017-10-20T11:24:59.356Z,24.85
2017-10-20T11:27:26.149Z,25.42
2017-10-20T11:29:52.188Z,25.70
2017-10-20T11:32:20.194Z,25.48
2017-10-20T11:34:46.978Z,25.70
2017-10-20T11:37:13.058Z,27.62
2017-10-20T11:39:40.161Z,24.37
2017-10-20T11:42:06.229Z,24.50
2017-10-20T11:44:33.022Z,26.53
2017-10-20T11:46:59.103Z,26.75
2017-10-20T11:49:25.168Z,25.30
2017-10-20T11:51:51.227Z,27.65
2017-10-20T11:54:18.257Z,26.50
2017-10-20T11:56:44.310Z,26.00
2017-10-20T11:59:10.349Z,25.37
2017-10-20T12:01:36.466Z,24.52
2017-10-20T12:04:02.578Z,21.37
2017-10-20T12:06:28.654Z,24.50
2017-10-20T12:08:54.725Z,23.90
2017-10-20T12:11:21.041Z,24.08
2017-10-20T12:13:47.850Z,23.42
2017-10-20T12:16:13.915Z,22.15
2017-10-20T12:18:40.290Z,21.92
2017-10-20T12:21:06.326Z,20.25
2017-10-20T12:23:32.366Z,20.27
2017-10-20T12:25:59.149Z,20.05
2017-10-20T12:28:25.190Z,20.37
2017-10-20T12:30:51.226Z,21.00
2017-10-20T12:33:17.477Z,19.23
2017-10-20T12:35:44.228Z,18.57
2017-10-20T12:38:11.050Z,20.00
2017-10-20T12:40:37.849Z,18.92
2017-10-20T12:43:03.884Z,18.45
2017-10-20T12:45:30.670Z,18.75
2017-10-20T12:47:56.998Z,19.00
2017-10-20T12:50:23.035Z,17.98
2017-10-20T12:52:49.072Z,18.00
2017-10-20T12:55:15.653Z,17.08
2017-10-20T12:57:41.682Z,17.35
2017-10-20T13:00:15.688Z,16.02
2017-10-20T13:02:42.457Z,14.93
2017-10-20T13:05:08.493Z,14.83
2017-10-20T13:07:34.542Z,13.85
2017-10-20T13:10:00.589Z,14.60
2017-10-20T13:12:26.629Z,14.27
2017-10-20T13:14:52.967Z,14.10
2017-10-20T13:17:18.994Z,14.70
2017-10-20T13:19:45.038Z,13.60
2017-10-20T13:22:11.079Z,14.17
2017-10-20T13:24:37.135Z,13.98
2017-10-20T13:27:03.946Z,14.02
2017-10-20T13:29:30.394Z,14.65
2017-10-20T13:31:56.453Z,14.48
2017-10-20T13:34:22.513Z,13.90
2017-10-20T13:36:48.569Z,13.95
2017-10-20T13:39:15.360Z,13.48
2017-10-20T13:41:41.401Z,12.18
2017-10-20T13:44:07.438Z,12.60
2017-10-20T13:46:33.470Z,11.55
2017-10-20T13:49:00.264Z,12.55
2017-10-20T13:51:26.310Z,73.30
2017-10-20T13:53:52.446Z,42.30
2017-10-20T13:56:19.602Z,31.30
2017-10-20T13:58:46.395Z,14.00
2017-10-20T14:01:12.432Z,12.40
2017-10-20T14:03:38.502Z,12.02
2017-10-20T14:06:04.591Z,12.32
2017-10-20T14:08:30.642Z,12.10
2017-10-20T14:10:57.574Z,12.47
2017-10-20T14:13:24.374Z,13.30
2017-10-20T14:15:50.406Z,13.25
2017-10-20T14:18:16.714Z,13.52
2017-10-20T14:20:42.750Z,13.77
2017-10-20T14:23:08.803Z,13.10
2017-10-20T14:25:34.846Z,13.45
2017-10-20T14:28:00.910Z,14.00
2017-10-20T14:30:26.994Z,13.52
2017-10-20T14:32:53.020Z,14.23
2017-10-20T14:35:19.090Z,14.02
2017-10-20T14:37:45.127Z,14.23
2017-10-20T14:40:11.207Z,15.60
2017-10-20T14:42:37.241Z,14.40
2017-10-20T14:45:03.274Z,15.27
2017-10-20T14:47:29.324Z,14.50
2017-10-20T14:49:56.263Z,14.15
2017-10-20T14:52:23.043Z,14.00
2017-10-20T14:54:49.090Z,14.70
2017-10-20T14:57:15.562Z,13.82
2017-10-20T14:59:42.358Z,14.90
2017-10-20T15:02:08.414Z,15.32
2017-10-20T15:04:34.503Z,14.70
2017-10-20T15:07:00.554Z,15.43
2017-10-20T15:09:26.617Z,14.75
2017-10-20T15:11:52.732Z,14.30
2017-10-20T15:14:18.773Z,14.48
2017-10-20T15:16:44.841Z,14.60
2017-10-20T15:19:10.885Z,13.40
2017-10-20T15:21:37.674Z,13.60
2017-10-20T15:24:03.967Z,12.90
2017-10-20T15:26:29.990Z,13.00
2017-10-20T15:28:56.018Z,12.50
2017-10-20T15:31:22.038Z,35.45
2017-10-20T15:33:48.075Z,47.10
2017-10-20T15:36:14.365Z,13.10
2017-10-20T15:38:41.155Z,12.00
2017-10-20T15:41:07.212Z,11.23
2017-10-20T15:43:33.278Z,12.05
2017-10-20T15:45:59.326Z,11.10
2017-10-20T15:48:25.363Z,11.03
2017-10-20T15:50:51.433Z,11.00
2017-10-20T15:53:17.495Z,11.48
2017-10-20T15:55:43.526Z,10.40
2017-10-20T15:58:09.784Z,10.45
2017-10-20T16:00:36.577Z,10.50
2017-10-20T16:03:02.638Z,10.98
2017-10-20T16:05:28.667Z,10.65
2017-10-20T16:07:55.454Z,10.27
2017-10-20T16:10:21.485Z,9.80
2017-10-20T16:12:47.541Z,9.80
2017-10-20T16:15:14.345Z,10.07
2017-10-20T16:17:40.402Z,9.80
2017-10-20T16:20:07.198Z,11.23
2017-10-20T16:22:33.242Z,11.07
2017-10-20T16:25:00.762Z,10.63
2017-10-20T16:27:26.814Z,10.32
2017-10-20T16:29:52.899Z,11.20
2017-10-20T16:32:18.937Z,11.35
2017-10-20T16:34:44.974Z,11.77
2017-10-20T16:37:11.032Z,11.35
2017-10-20T16:39:37.827Z,11.75
2017-10-20T16:42:03.929Z,11.20
2017-10-20T16:44:30.011Z,12.05
2017-10-20T16:46:56.065Z,11.10
2017-10-20T16:49:22.114Z,12.10
2017-10-20T16:51:48.338Z,11.60
2017-10-20T16:54:14.394Z,11.98
2017-10-20T16:56:40.433Z,11.30
2017-10-20T16:59:07.237Z,11.55
2017-10-20T17:01:33.273Z,12.00
2017-10-20T17:03:59.366Z,11.70
2017-10-20T17:06:25.777Z,12.40
2017-10-20T17:08:52.180Z,13.57
2017-10-20T17:11:18.984Z,13.43
2017-10-20T17:13:45.041Z,12.98
2017-10-20T17:16:11.818Z,14.45
2017-10-20T17:18:37.900Z,12.50
2017-10-20T17:21:04.760Z,12.40
2017-10-20T17:23:31.526Z,12.67
2017-10-20T17:25:57.638Z,13.60
2017-10-20T17:28:23.937Z,13.25
2017-10-20T17:30:50.727Z,13.30
2017-10-20T17:33:16.779Z,13.43
2017-10-20T17:35:42.942Z,14.40
2017-10-20T17:38:08.997Z,13.77
2017-10-20T17:40:35.049Z,14.27
2017-10-20T17:43:01.137Z,14.40
2017-10-20T17:45:27.191Z,13.63
2017-10-20T17:47:53.240Z,14.07
2017-10-20T17:50:20.050Z,14.30
2017-10-20T17:52:46.109Z,14.32
2017-10-20T17:55:12.901Z,13.53
2017-10-20T17:57:39.682Z,13.27
2017-10-20T18:00:05.730Z,13.65
2017-10-20T18:02:31.801Z,13.25
2017-10-20T18:04:57.830Z,12.70
2017-10-20T18:07:23.890Z,12.57
2017-10-20T18:09:49.946Z,11.90
2017-10-20T18:12:15.983Z,12.32
2017-10-20T18:14:42.038Z,12.70
2017-10-20T18:17:08.848Z,11.82
2017-10-20T18:19:34.881Z,12.50
2017-10-20T18:22:01.222Z,14.60
2017-10-20T18:24:28.038Z,12.95
2017-10-20T18:26:54.087Z,13.00
2017-10-20T18:29:20.865Z,12.90
2017-10-20T18:31:46.918Z,13.20
2017-10-20T18:34:12.973Z,14.03
2017-10-20T18:36:39.087Z,16.23
2017-10-20T18:39:05.861Z,15.55
2017-10-20T18:41:31.927Z,13.70
2017-10-20T18:43:58.178Z,14.35
2017-10-20T18:46:24.969Z,14.10
2017-10-20T18:48:51.017Z,11.70
2017-10-20T18:51:17.057Z,10.45
2017-10-20T18:53:43.877Z,10.30
2017-10-20T18:56:09.942Z,9.60
2017-10-20T18:58:36.258Z,9.35
2017-10-20T19:01:03.038Z,9.48
2017-10-20T19:03:29.117Z,9.50
2017-10-20T19:05:56.170Z,9.10
2017-10-20T19:08:22.978Z,8.30
2017-10-20T19:10:49.024Z,7.60
2017-10-20T19:13:16.229Z,7.00
2017-10-20T19:15:42.306Z,7.20
2017-10-20T19:18:08.354Z,7.50
2017-10-20T19:20:34.746Z,7.10
2017-10-20T19:23:01.540Z,6.60
2017-10-20T19:25:27.582Z,6.20
2017-10-20T19:27:53.634Z,6.30
2017-10-20T19:30:20.446Z,6.90
2017-10-20T19:32:47.281Z,6.20
2017-10-20T19:35:13.337Z,6.30
2017-10-20T19:37:39.394Z,5.90
2017-10-20T19:40:05.478Z,6.12
2017-10-20T19:42:32.306Z,5.93
2017-10-20T19:44:59.094Z,5.93
2017-10-20T19:47:25.139Z,6.03
2017-10-20T19:49:51.216Z,6.10
2017-10-20T19:52:17.264Z,5.22
2017-10-20T19:54:43.330Z,4.95
2017-10-20T19:57:09.357Z,4.70
2017-10-20T19:59:36.154Z,4.93
2017-10-20T20:02:02.223Z,4.90
2017-10-20T20:04:29.026Z,6.07
2017-10-20T20:06:55.061Z,19.02
2017-10-20T20:09:28.213Z,18.75
2017-10-20T20:11:54.273Z,5.20
2017-10-20T20:14:20.330Z,5.60
2017-10-20T20:16:46.641Z,6.50
2017-10-20T20:19:13.450Z,6.07
2017-10-20T20:21:39.526Z,6.45
2017-10-20T20:24:05.613Z,6.68
2017-10-20T20:26:31.683Z,7.18
2017-10-20T20:28:57.796Z,7.50
2017-10-20T20:31:25.870Z,7.30
2017-10-20T20:33:51.965Z,7.60
2017-10-20T20:36:18.787Z,8.05
2017-10-20T20:38:44.922Z,7.03
2017-10-20T20:41:11.038Z,8.32
2017-10-20T20:43:37.098Z,7.90
2017-10-20T20:46:03.401Z,7.63
2017-10-20T20:48:30.222Z,8.70
2017-10-20T20:50:56.270Z,8.27
2017-10-20T20:53:23.062Z,8.57
2017-10-20T20:55:49.866Z,8.37
2017-10-20T20:58:15.915Z,8.00
2017-10-20T21:00:41.973Z,8.30
2017-10-20T21:03:08.018Z,8.60
2017-10-20T21:05:34.798Z,9.13
2017-10-20T21:08:01.177Z,7.60
2017-10-20T21:10:28.043Z,8.40
2017-10-20T21:12:54.087Z,8.98
2017-10-20T21:15:20.155Z,8.13
2017-10-20T21:17:46.184Z,8.60
2017-10-20T21:20:12.974Z,8.10
2017-10-20T21:22:39.041Z,7.70
2017-10-20T21:25:05.099Z,8.80
2017-10-20T21:27:31.224Z,8.82
2017-10-20T21:29:57.593Z,9.38
2017-10-20T21:32:23.649Z,8.27
2017-10-20T21:34:50.481Z,8.65
2017-10-20T21:37:16.526Z,8.38
2017-10-20T21:39:42.555Z,8.65
2017-10-20T21:42:08.605Z,8.80
2017-10-20T21:44:34.665Z,9.38
2017-10-20T21:47:00.737Z,9.80
2017-10-20T21:49:26.772Z,9.53
2017-10-20T21:51:52.822Z,9.18
2017-10-20T21:54:18.887Z,8.80
2017-10-20T21:56:45.186Z,8.30
2017-10-20T21:59:11.984Z,9.25
2017-10-20T22:01:38.010Z,8.27
2017-10-20T22:04:04.083Z,9.00
2017-10-20T22:06:30.864Z,8.77
2017-10-20T22:08:56.951Z,8.77
2017-10-20T22:11:23.275Z,8.85
2017-10-20T22:13:50.059Z,8.20
2017-10-20T22:16:16.135Z,8.50
2017-10-20T22:18:43.078Z,8.57
2017-10-20T22:21:09.870Z,9.10
2017-10-20T22:23:35.909Z,9.32
2017-10-20T22:26:01.978Z,8.23
2017-10-20T22:28:28.005Z,8.48
2017-10-20T22:30:54.034Z,8.63
2017-10-20T22:33:20.138Z,50.83
2017-10-20T22:35:46.194Z,23.62
2017-10-20T22:38:12.240Z,52.38
2017-10-20T22:40:38.329Z,20.50
2017-10-20T22:43:04.446Z,34.10
2017-10-20T22:45:30.520Z,8.85
2017-10-20T22:47:56.575Z,7.72
2017-10-20T22:50:22.622Z,7.20
2017-10-20T22:52:48.699Z,7.22
2017-10-20T22:55:15.462Z,7.67
2017-10-20T22:57:41.526Z,8.20
2017-10-20T23:00:07.884Z,8.57
2017-10-20T23:02:33.943Z,7.93
2017-10-20T23:04:59.993Z,7.70
2017-10-20T23:07:26.093Z,7.25
2017-10-20T23:09:52.149Z,7.30
2017-10-20T23:12:18.182Z,7.13
2017-10-20T23:14:44.222Z,7.78
2017-10-20T23:17:11.261Z,7.27
2017-10-20T23:19:38.055Z,7.07
2017-10-20T23:22:04.081Z,7.30
2017-10-20T23:24:30.510Z,7.37
2017-10-20T23:26:56.536Z,7.50
2017-10-20T23:29:22.599Z,6.70
2017-10-20T23:31:49.413Z,7.15
2017-10-20T23:34:15.474Z,7.20
2017-10-20T23:36:41.521Z,6.40
2017-10-20T23:39:07.584Z,5.40
2017-10-20T23:41:33.641Z,6.80
2017-10-20T23:44:00.415Z,5.50
2017-10-20T23:46:26.517Z,6.70
2017-10-20T23:48:52.541Z,6.30
2017-10-20T23:51:18.596Z,5.90
2017-10-20T23:53:44.635Z,5.82
2017-10-20T23:56:10.749Z,6.10
2017-10-20T23:58:36.802Z,6.30
